sensor_id;sensor_type;location;lat;lon;timestamp;P1;durP1;ratioP1;P2;durP2;ratioP2
24451;SDS011;13350;50.984;5.822;2023-02-12T14:07:10;29.60;;;22.25;;
24451;SDS011;13350;50.984;5.822;2023-02-12T14:09:39;33.58;;;21.33;;
24451;SDS011;13350;50.984;5.822;2023-02-12T14:12:09;28.25;;;21.23;;
24451;SDS011;13350;50.984;5.822;2023-02-12T14:14:39;29.63;;;21.42;;
24451;SDS011;13350;50.984;5.822;2023-02-12T14:20:19;32.53;;;23.67;;
24451;SDS011;13350;50.984;5.822;2023-02-12T14:23:20;32.13;;;23.63;;
24451;SDS011;13350;50.984;5.822;2023-02-12T14:25:54;31.77;;;23.33;;
24451;SDS011;13350;50.984;5.822;2023-02-12T14:28:27;33.40;;;24.08;;
24451;SDS011;13350;50.984;5.822;2023-02-12T14:37:11;33.42;;;23.85;;
24451;SDS011;13350;50.984;5.822;2023-02-12T14:42:59;33.00;;;24.42;;
24451;SDS011;13350;50.984;5.822;2023-02-12T14:45:30;38.22;;;25.00;;
24451;SDS011;13350;50.984;5.822;2023-02-12T14:47:59;36.95;;;23.80;;
24451;SDS011;13350;50.984;5.822;2023-02-12T14:50:29;38.42;;;24.88;;
24451;SDS011;13350;50.984;5.822;2023-02-12T14:53:05;36.38;;;23.88;;
24451;SDS011;13350;50.984;5.822;2023-02-12T14:55:46;34.95;;;24.42;;
24451;SDS011;13350;50.984;5.822;2023-02-12T14:58:17;33.90;;;23.75;;
24451;SDS011;13350;50.984;5.822;2023-02-12T15:00:49;36.58;;;25.10;;
24451;SDS011;13350;50.984;5.822;2023-02-12T15:03:20;40.47;;;26.02;;
24451;SDS011;13350;50.984;5.822;2023-02-12T15:05:56;36.30;;;24.73;;
24451;SDS011;13350;50.984;5.822;2023-02-12T15:08:32;33.42;;;23.55;;
24451;SDS011;13350;50.984;5.822;2023-02-12T15:11:23;36.53;;;24.63;;
24451;SDS011;13350;50.984;5.822;2023-02-12T15:14:02;37.35;;;24.83;;
24451;SDS011;13350;50.984;5.822;2023-02-12T15:16:39;34.70;;;24.65;;
24451;SDS011;13350;50.984;5.822;2023-02-12T15:19:17;38.58;;;25.10;;
24451;SDS011;13350;50.984;5.822;2023-02-12T15:21:52;36.70;;;24.67;;
24451;SDS011;13350;50.984;5.822;2023-02-12T15:24:20;36.17;;;24.02;;
24451;SDS011;13350;50.984;5.822;2023-02-12T15:26:49;36.20;;;24.42;;
24451;SDS011;13350;50.984;5.822;2023-02-12T15:29:20;34.78;;;25.00;;
24451;SDS011;13350;50.984;5.822;2023-02-12T15:31:51;35.47;;;24.20;;
24451;SDS011;13350;50.984;5.822;2023-02-12T15:34:21;36.38;;;25.00;;
24451;SDS011;13350;50.984;5.822;2023-02-12T15:36:50;37.72;;;24.88;;
24451;SDS011;13350;50.984;5.822;2023-02-12T15:39:18;35.05;;;23.70;;
24451;SDS011;13350;50.984;5.822;2023-02-12T15:41:47;36.03;;;23.60;;
24451;SDS011;13350;50.984;5.822;2023-02-12T15:44:26;39.10;;;24.33;;
24451;SDS011;13350;50.984;5.822;2023-02-12T15:46:56;33.42;;;23.63;;
24451;SDS011;13350;50.984;5.822;2023-02-12T15:49:26;39.42;;;24.52;;
24451;SDS011;13350;50.984;5.822;2023-02-12T15:51:56;38.10;;;24.27;;
24451;SDS011;13350;50.984;5.822;2023-02-12T15:54:24;37.08;;;23.98;;
24451;SDS011;13350;50.984;5.822;2023-02-12T15:56:53;34.28;;;23.58;;
24451;SDS011;13350;50.984;5.822;2023-02-12T15:59:22;37.00;;;24.45;;
24451;SDS011;13350;50.984;5.822;2023-02-12T16:01:53;35.10;;;22.65;;
24451;SDS011;13350;50.984;5.822;2023-02-12T16:04:23;37.95;;;25.08;;
24451;SDS011;13350;50.984;5.822;2023-02-12T16:06:54;37.60;;;23.67;;
24451;SDS011;13350;50.984;5.822;2023-02-12T16:09:23;34.08;;;23.60;;
24451;SDS011;13350;50.984;5.822;2023-02-12T16:11:55;35.78;;;24.20;;
24451;SDS011;13350;50.984;5.822;2023-02-12T16:14:25;35.58;;;23.50;;
24451;SDS011;13350;50.984;5.822;2023-02-12T16:16:58;35.10;;;22.52;;
24451;SDS011;13350;50.984;5.822;2023-02-12T16:19:26;36.30;;;22.67;;
24451;SDS011;13350;50.984;5.822;2023-02-12T16:21:57;35.60;;;24.02;;
24451;SDS011;13350;50.984;5.822;2023-02-12T16:24:31;37.70;;;23.58;;
24451;SDS011;13350;50.984;5.822;2023-02-12T16:27:01;38.60;;;23.73;;
24451;SDS011;13350;50.984;5.822;2023-02-12T16:29:35;35.53;;;23.80;;
24451;SDS011;13350;50.984;5.822;2023-02-12T16:32:24;36.75;;;23.08;;
24451;SDS011;13350;50.984;5.822;2023-02-12T16:34:59;37.85;;;22.67;;
24451;SDS011;13350;50.984;5.822;2023-02-12T16:37:45;36.90;;;23.85;;
24451;SDS011;13350;50.984;5.822;2023-02-12T16:40:19;41.90;;;24.35;;
24451;SDS011;13350;50.984;5.822;2023-02-12T16:46:02;42.05;;;24.48;;
24451;SDS011;13350;50.984;5.822;2023-02-12T16:48:34;39.17;;;24.60;;
24451;SDS011;13350;50.984;5.822;2023-02-12T16:51:04;36.63;;;23.92;;
24451;SDS011;13350;50.984;5.822;2023-02-12T16:53:36;37.17;;;23.33;;
24451;SDS011;13350;50.984;5.822;2023-02-12T16:56:10;41.63;;;24.45;;
24451;SDS011;13350;50.984;5.822;2023-02-12T16:58:46;38.28;;;24.45;;
24451;SDS011;13350;50.984;5.822;2023-02-12T17:01:19;35.25;;;23.65;;
24451;SDS011;13350;50.984;5.822;2023-02-12T17:03:50;38.67;;;23.80;;
24451;SDS011;13350;50.984;5.822;2023-02-12T17:06:19;34.90;;;22.85;;
24451;SDS011;13350;50.984;5.822;2023-02-12T17:08:47;36.28;;;22.13;;
24451;SDS011;13350;50.984;5.822;2023-02-12T17:11:15;37.78;;;22.63;;
24451;SDS011;13350;50.984;5.822;2023-02-12T17:13:43;36.13;;;22.85;;
24451;SDS011;13350;50.984;5.822;2023-02-12T17:16:11;35.60;;;22.25;;
24451;SDS011;13350;50.984;5.822;2023-02-12T17:18:39;35.33;;;22.23;;
24451;SDS011;13350;50.984;5.822;2023-02-12T17:21:22;38.30;;;22.88;;
24451;SDS011;13350;50.984;5.822;2023-02-12T17:23:51;36.35;;;22.10;;
24451;SDS011;13350;50.984;5.822;2023-02-12T17:26:19;36.08;;;21.70;;
24451;SDS011;13350;50.984;5.822;2023-02-12T17:28:46;35.35;;;23.05;;
24451;SDS011;13350;50.984;5.822;2023-02-12T17:31:14;37.55;;;22.38;;
24451;SDS011;13350;50.984;5.822;2023-02-12T17:33:41;32.58;;;22.00;;
24451;SDS011;13350;50.984;5.822;2023-02-12T17:36:10;35.28;;;22.20;;
24451;SDS011;13350;50.984;5.822;2023-02-12T17:38:38;36.40;;;22.15;;
24451;SDS011;13350;50.984;5.822;2023-02-12T17:41:07;33.38;;;21.58;;
24451;SDS011;13350;50.984;5.822;2023-02-12T17:43:35;34.38;;;21.23;;
24451;SDS011;13350;50.984;5.822;2023-02-12T17:46:06;35.13;;;21.92;;
24451;SDS011;13350;50.984;5.822;2023-02-12T17:48:35;32.35;;;21.98;;
24451;SDS011;13350;50.984;5.822;2023-02-12T17:51:02;34.25;;;21.95;;
24451;SDS011;13350;50.984;5.822;2023-02-12T17:53:31;34.65;;;21.58;;
24451;SDS011;13350;50.984;5.822;2023-02-12T17:55:58;33.80;;;21.40;;
24451;SDS011;13350;50.984;5.822;2023-02-12T17:58:26;32.47;;;20.92;;
24451;SDS011;13350;50.984;5.822;2023-02-12T18:00:53;32.92;;;21.90;;
24451;SDS011;13350;50.984;5.822;2023-02-12T18:03:20;33.90;;;21.13;;
24451;SDS011;13350;50.984;5.822;2023-02-12T18:05:47;33.28;;;21.63;;
24451;SDS011;13350;50.984;5.822;2023-02-12T18:08:15;36.60;;;22.42;;
24451;SDS011;13350;50.984;5.822;2023-02-12T18:10:43;32.53;;;21.35;;
24451;SDS011;13350;50.984;5.822;2023-02-12T18:13:11;34.22;;;21.33;;
24451;SDS011;13350;50.984;5.822;2023-02-12T18:15:39;35.05;;;23.15;;
24451;SDS011;13350;50.984;5.822;2023-02-12T18:18:06;33.38;;;22.10;;
24451;SDS011;13350;50.984;5.822;2023-02-12T18:20:34;35.17;;;22.58;;
24451;SDS011;13350;50.984;5.822;2023-02-12T18:23:01;36.28;;;22.90;;
24451;SDS011;13350;50.984;5.822;2023-02-12T18:25:30;34.75;;;22.05;;
24451;SDS011;13350;50.984;5.822;2023-02-12T18:27:59;36.50;;;21.80;;
24451;SDS011;13350;50.984;5.822;2023-02-12T18:30:27;35.67;;;21.85;;
24451;SDS011;13350;50.984;5.822;2023-02-12T18:32:55;36.45;;;22.92;;
24451;SDS011;13350;50.984;5.822;2023-02-12T18:35:23;40.25;;;23.65;;
24451;SDS011;13350;50.984;5.822;2023-02-12T18:37:50;35.60;;;22.33;;
24451;SDS011;13350;50.984;5.822;2023-02-12T18:40:17;35.08;;;22.38;;
24451;SDS011;13350;50.984;5.822;2023-02-12T18:42:45;40.10;;;25.52;;
24451;SDS011;13350;50.984;5.822;2023-02-12T18:45:14;38.35;;;23.50;;
24451;SDS011;13350;50.984;5.822;2023-02-12T18:47:41;39.13;;;23.77;;
24451;SDS011;13350;50.984;5.822;2023-02-12T18:50:08;39.20;;;23.60;;
24451;SDS011;13350;50.984;5.822;2023-02-12T18:52:36;39.28;;;23.05;;
24451;SDS011;13350;50.984;5.822;2023-02-12T18:55:04;39.15;;;24.90;;
24451;SDS011;13350;50.984;5.822;2023-02-12T18:57:32;39.13;;;23.83;;
24451;SDS011;13350;50.984;5.822;2023-02-12T18:59:59;38.15;;;24.77;;
24451;SDS011;13350;50.984;5.822;2023-02-12T19:02:28;46.28;;;27.13;;
24451;SDS011;13350;50.984;5.822;2023-02-12T19:04:55;49.05;;;27.75;;
24451;SDS011;13350;50.984;5.822;2023-02-12T19:07:22;38.25;;;23.48;;
24451;SDS011;13350;50.984;5.822;2023-02-12T19:09:51;44.03;;;25.38;;
24451;SDS011;13350;50.984;5.822;2023-02-12T19:12:19;44.47;;;25.92;;
24451;SDS011;13350;50.984;5.822;2023-02-12T19:14:46;44.53;;;25.42;;
24451;SDS011;13350;50.984;5.822;2023-02-12T19:17:13;39.50;;;23.70;;
24451;SDS011;13350;50.984;5.822;2023-02-12T19:19:42;40.13;;;23.40;;
24451;SDS011;13350;50.984;5.822;2023-02-12T19:22:09;37.60;;;24.17;;
24451;SDS011;13350;50.984;5.822;2023-02-12T19:24:36;41.63;;;23.52;;
24451;SDS011;13350;50.984;5.822;2023-02-12T19:27:04;40.55;;;23.73;;
24451;SDS011;13350;50.984;5.822;2023-02-12T19:29:31;40.72;;;24.90;;
24451;SDS011;13350;50.984;5.822;2023-02-12T19:31:58;44.90;;;24.55;;
24451;SDS011;13350;50.984;5.822;2023-02-12T19:34:26;42.15;;;24.50;;
24451;SDS011;13350;50.984;5.822;2023-02-12T19:36:54;41.58;;;24.77;;
24451;SDS011;13350;50.984;5.822;2023-02-12T19:39:22;41.00;;;26.10;;
24451;SDS011;13350;50.984;5.822;2023-02-12T19:41:50;46.22;;;26.60;;
24451;SDS011;13350;50.984;5.822;2023-02-12T19:44:19;51.22;;;27.58;;
24451;SDS011;13350;50.984;5.822;2023-02-12T19:46:48;50.03;;;27.08;;
24451;SDS011;13350;50.984;5.822;2023-02-12T19:49:17;50.70;;;27.52;;
24451;SDS011;13350;50.984;5.822;2023-02-12T19:51:45;48.38;;;26.05;;
24451;SDS011;13350;50.984;5.822;2023-02-12T19:54:15;48.55;;;26.85;;
24451;SDS011;13350;50.984;5.822;2023-02-12T19:56:43;49.33;;;26.92;;
24451;SDS011;13350;50.984;5.822;2023-02-12T19:59:11;47.65;;;26.45;;
24451;SDS011;13350;50.984;5.822;2023-02-12T20:01:41;50.95;;;27.92;;
24451;SDS011;13350;50.984;5.822;2023-02-12T20:04:09;50.60;;;27.70;;
24451;SDS011;13350;50.984;5.822;2023-02-12T20:06:37;45.60;;;27.42;;
24451;SDS011;13350;50.984;5.822;2023-02-12T20:09:06;47.05;;;27.48;;
24451;SDS011;13350;50.984;5.822;2023-02-12T20:11:35;51.22;;;27.73;;
24451;SDS011;13350;50.984;5.822;2023-02-12T20:14:03;44.17;;;26.52;;
24451;SDS011;13350;50.984;5.822;2023-02-12T20:16:31;49.13;;;27.42;;
24451;SDS011;13350;50.984;5.822;2023-02-12T20:19:02;48.63;;;27.30;;
24451;SDS011;13350;50.984;5.822;2023-02-12T20:21:31;54.40;;;29.25;;
24451;SDS011;13350;50.984;5.822;2023-02-12T20:23:58;49.38;;;29.25;;
24451;SDS011;13350;50.984;5.822;2023-02-12T20:26:26;51.20;;;28.60;;
24451;SDS011;13350;50.984;5.822;2023-02-12T20:28:56;47.05;;;28.00;;
24451;SDS011;13350;50.984;5.822;2023-02-12T20:31:25;49.88;;;27.75;;
24451;SDS011;13350;50.984;5.822;2023-02-12T20:33:54;47.47;;;27.58;;
24451;SDS011;13350;50.984;5.822;2023-02-12T20:36:23;45.80;;;27.25;;
24451;SDS011;13350;50.984;5.822;2023-02-12T20:38:52;48.70;;;25.88;;
24451;SDS011;13350;50.984;5.822;2023-02-12T20:41:21;45.30;;;26.75;;
24451;SDS011;13350;50.984;5.822;2023-02-12T20:43:49;46.83;;;27.55;;
24451;SDS011;13350;50.984;5.822;2023-02-12T20:46:19;44.05;;;25.83;;
24451;SDS011;13350;50.984;5.822;2023-02-12T20:48:47;45.47;;;28.17;;
24451;SDS011;13350;50.984;5.822;2023-02-12T20:51:16;49.90;;;28.27;;
24451;SDS011;13350;50.984;5.822;2023-02-12T20:53:45;49.67;;;28.10;;
24451;SDS011;13350;50.984;5.822;2023-02-12T20:56:13;51.88;;;28.70;;
24451;SDS011;13350;50.984;5.822;2023-02-12T20:58:42;45.63;;;27.15;;
24451;SDS011;13350;50.984;5.822;2023-02-12T21:01:11;46.63;;;27.02;;
24451;SDS011;13350;50.984;5.822;2023-02-12T21:03:42;47.65;;;28.23;;
24451;SDS011;13350;50.984;5.822;2023-02-12T21:06:10;49.90;;;29.20;;
24451;SDS011;13350;50.984;5.822;2023-02-12T21:08:39;48.47;;;28.65;;
24451;SDS011;13350;50.984;5.822;2023-02-12T21:11:07;49.08;;;29.73;;
24451;SDS011;13350;50.984;5.822;2023-02-12T21:13:39;51.22;;;30.35;;
24451;SDS011;13350;50.984;5.822;2023-02-12T21:16:11;52.17;;;29.67;;
24451;SDS011;13350;50.984;5.822;2023-02-12T21:18:40;47.50;;;27.67;;
24451;SDS011;13350;50.984;5.822;2023-02-12T21:21:13;50.97;;;27.30;;
24451;SDS011;13350;50.984;5.822;2023-02-12T21:23:41;50.60;;;30.38;;
24451;SDS011;13350;50.984;5.822;2023-02-12T21:26:10;52.05;;;29.20;;
24451;SDS011;13350;50.984;5.822;2023-02-12T21:28:39;51.78;;;28.88;;
24451;SDS011;13350;50.984;5.822;2023-02-12T21:31:07;46.53;;;28.13;;
24451;SDS011;13350;50.984;5.822;2023-02-12T21:33:36;52.30;;;29.08;;
24451;SDS011;13350;50.984;5.822;2023-02-12T21:36:04;49.40;;;28.02;;
24451;SDS011;13350;50.984;5.822;2023-02-12T21:38:34;49.85;;;28.00;;
24451;SDS011;13350;50.984;5.822;2023-02-12T21:41:09;49.55;;;29.02;;
24451;SDS011;13350;50.984;5.822;2023-02-12T21:43:38;54.38;;;30.20;;
24451;SDS011;13350;50.984;5.822;2023-02-12T21:46:06;46.47;;;27.77;;
24451;SDS011;13350;50.984;5.822;2023-02-12T21:48:34;49.05;;;28.52;;
24451;SDS011;13350;50.984;5.822;2023-02-12T21:51:03;46.13;;;26.42;;
24451;SDS011;13350;50.984;5.822;2023-02-12T21:53:31;57.83;;;30.17;;
24451;SDS011;13350;50.984;5.822;2023-02-12T21:56:00;47.70;;;27.30;;
24451;SDS011;13350;50.984;5.822;2023-02-12T21:58:28;49.47;;;29.88;;
24451;SDS011;13350;50.984;5.822;2023-02-12T22:00:55;50.45;;;28.63;;
24451;SDS011;13350;50.984;5.822;2023-02-12T22:03:30;49.25;;;28.17;;
24451;SDS011;13350;50.984;5.822;2023-02-12T22:05:58;48.30;;;27.80;;
24451;SDS011;13350;50.984;5.822;2023-02-12T22:08:26;50.80;;;29.40;;
24451;SDS011;13350;50.984;5.822;2023-02-12T22:10:55;48.35;;;28.23;;
24451;SDS011;13350;50.984;5.822;2023-02-12T22:13:22;56.35;;;30.42;;
24451;SDS011;13350;50.984;5.822;2023-02-12T22:15:50;51.85;;;28.40;;
24451;SDS011;13350;50.984;5.822;2023-02-12T22:18:17;49.75;;;28.60;;
24451;SDS011;13350;50.984;5.822;2023-02-12T22:20:44;52.28;;;26.98;;
24451;SDS011;13350;50.984;5.822;2023-02-12T22:23:11;50.92;;;30.83;;
24451;SDS011;13350;50.984;5.822;2023-02-12T22:25:38;50.42;;;28.63;;
24451;SDS011;13350;50.984;5.822;2023-02-12T22:28:07;48.35;;;28.30;;
24451;SDS011;13350;50.984;5.822;2023-02-12T22:30:34;46.63;;;26.63;;
24451;SDS011;13350;50.984;5.822;2023-02-12T22:33:03;49.38;;;28.90;;
24451;SDS011;13350;50.984;5.822;2023-02-12T22:35:31;47.38;;;27.45;;
24451;SDS011;13350;50.984;5.822;2023-02-12T22:37:58;52.95;;;29.42;;
24451;SDS011;13350;50.984;5.822;2023-02-12T22:40:25;53.97;;;30.00;;
24451;SDS011;13350;50.984;5.822;2023-02-12T22:42:52;47.15;;;27.10;;
24451;SDS011;13350;50.984;5.822;2023-02-12T22:45:21;47.83;;;26.98;;
24451;SDS011;13350;50.984;5.822;2023-02-12T22:47:48;50.20;;;27.98;;
24451;SDS011;13350;50.984;5.822;2023-02-12T22:50:16;54.05;;;29.92;;
